Time;durP1;ratioP1;P1;durP2;ratioP2;P2;SDS_P1;SDS_P2;PMS_P1;PMS_P2;Temp;Humidity;BMP_temperature;BMP_pressure;BME280_temperature;BME280_humidity;BME280_pressure;Samples;Min_cycle;Max_cycle;Signal;HPM_P1;HPM_P2
2021/04/13 00:02:28;;;;;;;2.83;0.97;;;;;;;3.34;69.30;101325.22;5075394;28;20205;-71
2021/04/13 00:05:01;;;;;;;4.07;2.23;;;;;;;3.35;69.14;101327.84;5079557;28;20216;-70
2021/04/13 00:07:31;;;;;;;5.80;0.90;;;;;;;3.37;69.05;101323.38;5076020;28;20228;-70
2021/04/13 00:10:06;;;;;;;2.03;1.87;;;;;;;3.28;69.02;101320.97;5080287;28;20236;-70
2021/04/13 00:12:37;;;;;;;1.50;1.40;;;;;;;3.31;68.82;101328.84;5077485;28;20192;-70
2021/04/13 00:15:10;;;;;;;1.80;1.70;;;;;;;3.35;69.01;101327.84;5086751;28;20207;-70
2021/04/13 00:17:40;;;;;;;1.97;1.40;;;;;;;3.25;69.15;101310.44;5081615;28;20259;-71
2021/04/13 00:20:11;;;;;;;0.63;0.63;;;;;;;3.30;69.03;101324.44;5082420;28;21837;-70
2021/04/13 00:22:40;;;;;;;2.10;1.13;;;;;;;3.31;68.80;101331.50;5082923;28;20211;-74
2021/04/13 00:25:11;;;;;;;0.77;0.77;;;;;;;3.27;69.17;101329.84;5084072;28;20675;-74
2021/04/13 00:27:39;;;;;;;5.57;1.57;;;;;;;3.26;69.16;101329.91;5080758;28;20231;-74
2021/04/13 00:30:12;;;;;;;2.37;0.50;;;;;;;3.19;69.31;101329.19;5077542;28;20205;-70
2021/04/13 00:32:47;;;;;;;0.53;0.50;;;;;;;3.20;69.52;101320.31;5077563;28;20208;-74
2021/04/13 00:35:19;;;;;;;0.40;0.40;;;;;;;3.19;68.75;101326.53;5086522;28;20290;-74
2021/04/13 00:37:46;;;;;;;1.83;0.40;;;;;;;3.14;69.28;101320.50;5082801;28;20229;-74
2021/04/13 00:40:22;;;;;;;1.20;0.60;;;;;;;3.15;69.20;101327.56;5076868;28;20208;-74
2021/04/13 00:42:52;;;;;;;1.13;0.40;;;;;;;3.14;69.02;101323.16;5076884;28;20290;-74
2021/04/13 00:45:33;;;;;;;0.33;0.30;;;;;;;3.05;69.42;101316.28;5075026;28;20746;-74
2021/04/13 00:48:02;;;;;;;0.93;0.60;;;;;;;2.97;69.91;101312.13;5080271;28;20310;-74
2021/04/13 00:50:33;;;;;;;3.27;0.57;;;;;;;2.85;69.72;101296.56;5079073;28;20203;-74
2021/04/13 00:53:04;;;;;;;0.37;0.30;;;;;;;2.96;69.22;101313.91;5085773;28;20204;-74
2021/04/13 00:55:35;;;;;;;4.53;0.73;;;;;;;3.02;69.49;101320.81;5084290;28;20261;-74
2021/04/13 00:58:09;;;;;;;0.53;0.53;;;;;;;3.00;69.35;101315.56;5076999;28;20251;-74
2021/04/13 01:00:40;;;;;;;0.40;0.40;;;;;;;2.99;69.50;101318.25;5075284;28;20575;-74
2021/04/13 01:03:08;;;;;;;2.03;0.47;;;;;;;2.98;69.03;101319.16;5077210;28;20212;-74
2021/04/13 01:05:39;;;;;;;4.23;0.53;;;;;;;2.94;69.11;101301.59;5076517;28;20291;-74
2021/04/13 01:08:24;;;;;;;0.40;0.40;;;;;;;3.01;69.05;101314.66;5076848;28;20281;-74
2021/04/13 01:10:53;;;;;;;0.50;0.40;;;;;;;2.97;68.72;101313.00;5077041;28;20193;-74
2021/04/13 01:13:34;;;;;;;0.50;0.30;;;;;;;2.94;68.95;101312.22;5074722;28;20204;-74
2021/04/13 01:16:02;;;;;;;0.50;0.50;;;;;;;2.89;68.65;101314.13;5078487;28;20254;-74
2021/04/13 01:18:33;;;;;;;2.07;0.47;;;;;;;2.44;68.82;101246.34;5087678;28;20220;-74
2021/04/13 01:21:10;;;;;;;2.27;0.43;;;;;;;2.81;69.45;101309.03;5079935;28;20546;-74
2021/04/13 01:23:43;;;;;;;0.97;0.57;;;;;;;2.74;68.94;101310.94;5077730;28;20195;-74
2021/04/13 01:26:10;;;;;;;2.60;0.40;;;;;;;2.78;69.22;101315.28;5080191;28;20617;-75
2021/04/13 01:28:39;;;;;;;3.40;0.67;;;;;;;2.76;69.15;101311.81;5080583;28;20204;-74
2021/04/13 01:31:11;;;;;;;1999.90;999.90;;;;;;;2.73;69.06;101309.22;5083155;28;20217;-74
2021/04/13 01:33:42;;;;;;;515.97;146.20;;;;;;;2.71;69.58;101321.63;5078396;28;20211;-70
2021/04/13 01:36:25;;;;;;;26.77;11.27;;;;;;;2.69;69.84;101320.81;5085960;28;20220;-69
2021/04/13 01:39:00;;;;;;;6.73;3.17;;;;;;;2.65;69.38;101319.16;5084664;28;20231;-69
2021/04/13 01:41:45;;;;;;;15.50;8.00;;;;;;;2.31;69.23;101262.63;5081962;28;20283;-69
2021/04/13 01:44:17;;;;;;;2.00;1.30;;;;;;;2.56;69.60;101314.09;5082311;28;20196;-69
2021/04/13 01:46:45;;;;;;;3.37;2.00;;;;;;;2.54;69.43;101307.09;5085182;28;20208;-75
2021/04/13 01:49:12;;;;;;;2.20;1.03;;;;;;;2.60;69.32;101317.53;5083530;28;20200;-74
2021/04/13 01:51:40;;;;;;;6.20;2.33;;;;;;;2.61;69.60;101322.81;5084692;28;20316;-75
2021/04/13 01:54:14;;;;;;;0.70;0.70;;;;;;;2.55;69.43;101308.84;5079027;28;20334;-75
2021/04/13 01:56:59;;;;;;;3.23;2.13;;;;;;;2.58;69.65;101312.28;5083022;28;20195;-75
2021/04/13 01:59:35;;;;;;;2.50;1.10;;;;;;;2.14;69.40;101248.03;5075817;28;20265;-75
2021/04/13 02:02:14;;;;;;;944.33;450.37;;;;;;;2.35;69.47;101289.00;5081584;28;20300;-75
2021/04/13 02:04:49;;;;;;;142.97;71.53;;;;;;;2.43;70.16;101310.88;5081651;28;20278;-74
2021/04/13 02:07:36;;;;;;;1.43;1.10;;;;;;;2.47;69.52;101319.66;5079770;28;20206;-75
2021/04/13 02:10:14;;;;;;;1.03;0.70;;;;;;;2.45;70.37;101326.75;5082000;28;20232;-74
2021/04/13 02:12:46;;;;;;;0.27;0.27;;;;;;;2.45;69.75;101319.69;5085774;28;20227;-75
2021/04/13 02:15:25;;;;;;;1.30;0.70;;;;;;;2.41;69.88;101317.13;5082254;28;20200;-74
2021/04/13 02:17:57;;;;;;;1.43;0.60;;;;;;;2.29;69.76;101301.53;5074554;28;20232;-75
2021/04/13 02:20:29;;;;;;;0.57;0.40;;;;;;;2.36;69.72;101313.72;5086127;28;20290;-69
2021/04/13 02:22:57;;;;;;;3.53;0.77;;;;;;;2.31;69.77;101315.63;5084681;28;21735;-69
2021/04/13 02:25:29;;;;;;;0.50;0.33;;;;;;;2.27;69.86;101308.66;5083718;28;20296;-69
2021/04/13 02:27:58;;;;;;;0.30;0.30;;;;;;;2.25;69.63;101310.47;5082769;28;20256;-73
2021/04/13 02:30:37;;;;;;;0.80;0.40;;;;;;;2.13;70.39;101307.19;5079381;28;20291;-74
2021/04/13 02:33:11;;;;;;;1.13;0.40;;;;;;;2.01;71.07;101304.84;5076233;28;20204;-69
2021/04/13 02:35:40;;;;;;;0.57;0.50;;;;;;;1.95;71.58;101312.94;5077798;28;20200;-75
2021/04/13 02:38:13;;;;;;;0.33;0.33;;;;;;;2.00;70.62;101310.19;5080232;28;20251;-74
2021/04/13 02:40:50;;;;;;;2.30;0.40;;;;;;;2.04;70.36;101312.72;5082120;28;20285;-75
2021/04/13 02:43:25;;;;;;;0.27;0.27;;;;;;;1.62;70.70;101252.84;5078616;28;20738;-74
2021/04/13 02:45:57;;;;;;;0.20;0.20;;;;;;;1.84;70.95;101307.91;5072088;28;20717;-74
2021/04/13 02:48:28;;;;;;;2.20;0.80;;;;;;;1.91;70.37;101318.34;5081759;28;20654;-74
2021/04/13 02:51:00;;;;;;;1.73;0.70;;;;;;;1.75;71.75;101307.22;5074102;28;20207;-75
2021/04/13 02:53:35;;;;;;;0.77;0.63;;;;;;;1.87;71.15;101314.91;5079056;28;20580;-74
2021/04/13 02:56:07;;;;;;;0.80;0.47;;;;;;;1.43;71.16;101244.41;5079825;28;20524;-74
2021/04/13 02:58:42;;;;;;;4.73;0.73;;;;;;;1.71;70.83;101294.97;5076714;28;20224;-75
2021/04/13 03:01:13;;;;;;;2.20;0.40;;;;;;;1.81;70.73;101312.38;5078423;28;20680;-69
2021/04/13 03:03:44;;;;;;;0.90;0.20;;;;;;;1.77;70.99;101311.56;5075322;28;20282;-69
2021/04/13 03:06:12;;;;;;;3.67;0.33;;;;;;;1.76;70.93;101308.97;5079442;28;20270;-69
2021/04/13 03:08:41;;;;;;;8.97;4.10;;;;;;;1.67;70.60;101309.19;5084815;28;20743;-69
2021/04/13 03:11:17;;;;;;;63.93;20.63;;;;;;;1.70;70.67;101312.63;5069211;28;20206;-69
2021/04/13 03:13:45;;;;;;;11.53;3.53;;;;;;;1.70;70.73;101314.41;5083131;28;20670;-69
2021/04/13 03:16:16;;;;;;;5.37;3.23;;;;;;;1.68;70.65;101293.25;5077269;28;20663;-69
2021/04/13 03:18:48;;;;;;;2.30;2.10;;;;;;;1.73;70.80;101299.31;5081869;28;20253;-69
2021/04/13 03:21:23;;;;;;;2.43;1.17;;;;;;;1.74;70.37;101297.53;5083231;28;20207;-73
2021/04/13 03:23:54;;;;;;;3.27;2.63;;;;;;;1.72;70.52;101304.66;5077125;28;20281;-72
2021/04/13 03:26:26;;;;;;;1.60;1.40;;;;;;;1.76;70.76;101311.59;5077181;28;21031;-73
2021/04/13 03:28:56;;;;;;;4.67;1.50;;;;;;;1.61;70.62;101282.84;5076532;28;20201;-69
2021/04/13 03:31:31;;;;;;;5.50;0.73;;;;;;;1.78;70.74;101307.16;5085173;28;20430;-73
2021/04/13 03:34:00;;;;;;;4.77;1.47;;;;;;;1.78;70.55;101304.50;5077573;28;20205;-73
2021/04/13 03:36:29;;;;;;;0.67;0.67;;;;;;;1.75;70.85;101307.22;5069705;28;20196;-70
2021/04/13 03:39:00;;;;;;;3.50;1.00;;;;;;;1.75;70.39;101307.22;5083297;28;20220;-73
2021/04/13 03:41:28;;;;;;;1.13;0.90;;;;;;;1.66;71.25;101303.00;5071871;28;20194;-73
2021/04/13 03:43:59;;;;;;;5.90;1.10;;;;;;;1.64;71.21;101304.81;5073325;28;20223;-69
2021/04/13 03:46:32;;;;;;;1.90;1.17;;;;;;;1.62;70.91;101300.47;5081897;28;20280;-69
2021/04/13 03:49:00;;;;;;;2.03;1.00;;;;;;;1.53;71.80;101299.78;5075901;28;20299;-69
2021/04/13 03:51:31;;;;;;;7.40;1.43;;;;;;;1.54;71.53;101305.94;5087835;28;20199;-69
2021/04/13 03:53:59;;;;;;;1.57;0.40;;;;;;;1.51;71.36;101301.56;5081035;28;20209;-69
2021/04/13 03:56:27;;;;;;;0.40;0.40;;;;;;;1.51;71.24;101304.19;5073869;28;20208;-70
2021/04/13 03:58:56;;;;;;;1.40;0.53;;;;;;;1.21;71.31;101255.47;5084259;28;20246;-69
2021/04/13 04:01:26;;;;;;;1.40;0.40;;;;;;;1.52;71.09;101302.41;5077703;28;20278;-69
2021/04/13 04:03:57;;;;;;;1.27;0.60;;;;;;;1.47;71.23;101305.16;5078220;28;20289;-69
2021/04/13 04:06:38;;;;;;;1.13;0.53;;;;;;;1.41;71.14;101288.56;5085403;28;20291;-69
2021/04/13 04:09:15;;;;;;;1.17;0.50;;;;;;;1.45;71.29;101285.81;5079137;28;20314;-69
2021/04/13 04:11:42;;;;;;;2.43;0.70;;;;;;;1.56;70.96;101304.13;5074902;28;20599;-69
2021/04/13 04:14:15;;;;;;;0.33;0.33;;;;;;;1.55;71.07;101303.25;5077067;28;20700;-71
2021/04/13 04:16:42;;;;;;;3.57;0.60;;;;;;;1.61;70.97;101306.66;5079048;28;20202;-69
2021/04/13 04:19:17;;;;;;;1.00;0.53;;;;;;;1.65;70.85;101309.22;5074541;28;20206;-69
2021/04/13 04:21:47;;;;;;;1.80;0.67;;;;;;;1.67;71.06;101317.13;5076363;28;20293;-68
2021/04/13 04:24:21;;;;;;;0.43;0.43;;;;;;;1.72;71.06;101315.22;5076118;28;20642;-68
2021/04/13 04:26:54;;;;;;;5.10;0.90;;;;;;;1.67;71.05;101296.81;5079186;28;20510;-68
2021/04/13 04:29:35;;;;;;;2.43;0.50;;;;;;;1.86;71.24;101315.81;5076160;28;20282;-69
2021/04/13 04:32:14;;;;;;;4.50;0.73;;;;;;;2.03;71.03;101316.28;5077598;28;20723;-69
2021/04/13 04:34:53;;;;;;;0.57;0.37;;;;;;;2.14;71.14;101318.66;5073052;28;20201;-68
2021/04/13 04:37:24;;;;;;;2.13;0.90;;;;;;;2.30;71.07;101320.03;5071594;28;20212;-69
2021/04/13 04:40:11;;;;;;;0.77;0.40;;;;;;;2.51;70.50;101321.31;5080180;28;20209;-68
2021/04/13 04:42:45;;;;;;;6.50;0.50;;;;;;;2.30;70.48;101253.81;5073564;28;20659;-69
2021/04/13 04:45:16;;;;;;;7.30;0.97;;;;;;;2.86;70.50;101314.22;5080483;28;20278;-69
2021/04/13 04:47:44;;;;;;;0.67;0.50;;;;;;;3.09;69.94;101315.34;5078904;28;20198;-68
2021/04/13 04:50:16;;;;;;;1.67;0.67;;;;;;;3.13;70.26;101281.63;5075514;28;20241;-68
2021/04/13 04:52:45;;;;;;;1.67;0.50;;;;;;;3.52;69.82;101318.53;5077581;28;20696;-70
2021/04/13 04:55:14;;;;;;;0.50;0.50;;;;;;;3.65;69.77;101317.25;5072536;28;20667;-68
2021/04/13 04:57:42;;;;;;;0.93;0.40;;;;;;;3.67;69.83;101315.41;5069456;28;20220;-68
2021/04/13 05:00:11;;;;;;;0.63;0.63;;;;;;;3.71;69.30;101317.94;5068664;28;20197;-69
2021/04/13 05:02:38;;;;;;;1.70;0.50;;;;;;;3.65;69.81;101309.28;5076112;28;20623;-69
2021/04/13 05:05:07;;;;;;;1.17;0.50;;;;;;;3.71;69.64;101320.59;5079286;28;20201;-68
2021/04/13 05:07:36;;;;;;;4.00;0.60;;;;;;;3.77;69.76;101321.31;5079097;28;20741;-68
2021/04/13 05:10:03;;;;;;;2.97;0.50;;;;;;;3.62;69.36;101280.16;5081933;28;20236;-68
2021/04/13 05:12:31;;;;;;;0.57;0.40;;;;;;;3.79;69.46;101312.41;5086053;28;20204;-68
2021/04/13 05:14:58;;;;;;;1.13;0.70;;;;;;;3.73;69.45;101316.13;5083100;28;20210;-68
2021/04/13 05:17:25;;;;;;;0.57;0.53;;;;;;;3.86;69.33;101326.34;5081639;28;20250;-67
2021/04/13 05:19:52;;;;;;;1.80;0.60;;;;;;;3.95;69.15;101336.69;5095620;28;20270;-68
2021/04/13 05:22:19;;;;;;;400.63;206.70;;;;;;;3.97;69.17;101332.19;5094214;28;20294;-69
2021/04/13 05:24:48;;;;;;;147.87;54.03;;;;;;;4.00;69.21;101334.78;5087735;28;20303;-68
2021/04/13 05:27:15;;;;;;;6.13;3.33;;;;;;;3.99;69.92;101339.22;5074974;28;20208;-68
2021/04/13 05:29:42;;;;;;;1.10;1.00;;;;;;;3.96;70.21;101344.59;5086079;28;20246;-72
2021/04/13 05:32:14;;;;;;;5.37;1.60;;;;;;;3.95;69.87;101336.69;5081870;28;20207;-71
2021/04/13 05:34:41;;;;;;;2.30;1.50;;;;;;;3.94;70.61;101334.94;5079872;28;20245;-72
2021/04/13 05:37:10;;;;;;;8.57;2.47;;;;;;;3.93;70.48;101334.06;5081777;28;20200;-72
2021/04/13 05:39:37;;;;;;;3.87;1.00;;;;;;;3.97;70.80;101332.19;5107463;27;20280;-72
2021/04/13 05:42:06;;;;;;;2.53;1.13;;;;;;;3.96;70.26;101338.41;5084445;28;20220;-72
2021/04/13 05:44:34;;;;;;;1.13;0.90;;;;;;;4.00;70.27;101335.66;5082312;28;20621;-75
2021/04/13 05:47:01;;;;;;;1.13;1.00;;;;;;;4.09;70.43;101337.13;5089352;28;20684;-72
2021/04/13 05:49:29;;;;;;;0.83;0.83;;;;;;;4.15;70.02;101338.72;5081305;28;20204;-72
2021/04/13 05:51:56;;;;;;;5.00;2.33;;;;;;;4.27;69.95;101339.19;5087110;28;20287;-72
2021/04/13 05:54:23;;;;;;;1.07;0.80;;;;;;;4.34;69.59;101339.91;5081893;28;20261;-72
2021/04/13 05:56:51;;;;;;;1.70;1.47;;;;;;;4.54;69.42;101341.88;5074501;28;20280;-73
2021/04/13 05:59:19;;;;;;;2.77;1.23;;;;;;;4.58;69.46;101333.75;5074502;28;20233;-73
2021/04/13 06:01:48;;;;;;;0.90;0.90;;;;;;;4.68;69.32;101329.88;5087076;28;20202;-73
2021/04/13 06:04:16;;;;;;;1.93;1.77;;;;;;;4.82;68.73;101320.53;5082504;28;20214;-73
2021/04/13 06:06:43;;;;;;;4.70;3.73;;;;;;;5.03;68.35;101333.09;5077368;28;20196;-73
2021/04/13 06:09:12;;;;;;;1.00;0.63;;;;;;;5.02;68.58;101327.81;5078547;28;20235;-73
2021/04/13 06:11:40;;;;;;;2.00;0.77;;;;;;;5.08;68.36;101312.50;5075499;28;20196;-73
2021/04/13 06:14:08;;;;;;;1.03;0.93;;;;;;;5.25;67.88;101320.75;5079676;28;20224;-73
2021/04/13 06:16:37;;;;;;;0.90;0.70;;;;;;;5.48;67.89;101333.22;5083687;28;20208;-73
2021/04/13 06:19:06;;;;;;;0.60;0.57;;;;;;;5.66;67.05;101322.81;5079588;28;20643;-73
2021/04/13 06:21:34;;;;;;;2.17;1.00;;;;;;;6.03;66.40;101330.25;5073696;28;20194;-74
2021/04/13 06:24:02;;;;;;;0.50;0.50;;;;;;;6.23;66.60;101328.53;5082027;28;20220;-73
2021/04/13 06:26:30;;;;;;;1.23;0.80;;;;;;;6.49;65.28;101334.63;5081387;28;20596;-73
2021/04/13 06:28:57;;;;;;;1.23;1.10;;;;;;;6.69;65.17;101336.44;5069901;28;20553;-74
2021/04/13 06:31:24;;;;;;;0.40;0.40;;;;;;;6.56;63.05;101319.22;5076777;28;20619;-73
2021/04/13 06:33:52;;;;;;;0.40;0.40;;;;;;;6.80;64.11;101332.41;5082469;28;20203;-73
2021/04/13 06:36:23;;;;;;;2.40;0.70;;;;;;;6.90;63.78;101332.88;5075352;28;20223;-73
2021/04/13 06:38:52;;;;;;;3.70;0.70;;;;;;;7.02;63.03;101320.78;5081141;28;20226;-73
2021/04/13 06:41:42;;;;;;;1.43;1.20;;;;;;;7.33;62.97;101341.66;5089994;28;20244;-73
2021/04/13 06:44:42;;;;;;;0.60;0.60;;;;;;;7.33;62.52;101347.00;5084990;28;20194;-73
2021/04/13 06:47:19;;;;;;;1.33;0.50;;;;;;;7.38;61.07;101339.66;5074938;28;20741;-73
2021/04/13 06:49:59;;;;;;;0.60;0.60;;;;;;;7.49;61.04;101345.38;5088024;28;20704;-73
2021/04/13 06:52:37;;;;;;;3.40;0.90;;;;;;;7.30;60.43;101299.06;5085110;28;20192;-73
2021/04/13 06:55:13;;;;;;;2.70;0.90;;;;;;;7.57;60.04;101347.69;5089534;28;20502;-73
2021/04/13 06:57:55;;;;;;;0.23;0.23;;;;;;;7.46;60.08;101345.53;5084424;28;20197;-73
2021/04/13 07:00:32;;;;;;;0.33;0.33;;;;;;;7.40;60.83;101359.16;5086717;28;20254;-73
2021/04/13 07:03:18;;;;;;;2.23;0.50;;;;;;;7.43;60.55;101348.34;5085854;28;20628;-73
2021/04/13 07:05:51;;;;;;;2.90;0.80;;;;;;;7.44;60.66;101348.28;5078050;28;20221;-69
2021/04/13 07:08:23;;;;;;;1.23;0.37;;;;;;;7.44;60.68;101352.75;5073930;28;20314;-69
2021/04/13 07:10:56;;;;;;;0.80;0.80;;;;;;;7.50;60.33;101352.47;5086230;28;20627;-69
2021/04/13 07:13:33;;;;;;;0.50;0.50;;;;;;;7.53;60.62;101356.81;5088177;28;20719;-69
2021/04/13 07:16:05;;;;;;;1.30;0.63;;;;;;;7.35;60.24;101348.69;5085655;28;20238;-68
2021/04/13 07:18:39;;;;;;;2.70;1.00;;;;;;;7.61;60.07;101365.31;5087215;28;20216;-69
2021/04/13 07:21:12;;;;;;;2.23;0.43;;;;;;;7.58;60.48;101355.66;5088785;28;20204;-69
2021/04/13 07:23:43;;;;;;;1.43;0.60;;;;;;;7.80;61.14;101355.53;5084659;28;20201;-69
2021/04/13 07:26:15;;;;;;;1.83;0.83;;;;;;;8.00;59.35;101330.56;5088924;28;20194;-69
2021/04/13 07:28:52;;;;;;;2.13;0.80;;;;;;;8.10;59.12;101322.00;5080393;28;20220;-70
2021/04/13 07:31:36;;;;;;;0.97;0.67;;;;;;;8.42;59.19;101356.19;5074843;28;20614;-69
2021/04/13 07:34:04;;;;;;;0.83;0.60;;;;;;;8.53;59.10;101348.50;5073371;28;20203;-69
2021/04/13 07:36:45;;;;;;;2.07;0.57;;;;;;;8.72;59.04;101338.59;5084841;28;20196;-69
2021/04/13 07:39:13;;;;;;;0.50;0.50;;;;;;;8.96;56.96;101339.19;5075704;28;20741;-69
2021/04/13 07:41:44;;;;;;;0.60;0.40;;;;;;;9.15;57.35;101339.06;5086150;28;20224;-69
2021/04/13 07:44:17;;;;;;;0.20;0.20;;;;;;;9.30;56.51;101343.63;5075434;28;20204;-69
2021/04/13 07:46:51;;;;;;;0.37;0.37;;;;;;;9.42;57.60;101344.78;5073083;28;20498;-70
2021/04/13 07:49:28;;;;;;;1.10;1.00;;;;;;;9.39;55.92;101284.16;5083680;28;20218;-70
2021/04/13 07:52:12;;;;;;;0.57;0.50;;;;;;;9.69;54.98;101339.75;5087140;28;20283;-69
2021/04/13 07:54:47;;;;;;;1.67;0.57;;;;;;;9.91;55.10;101338.50;5083917;28;20239;-73
2021/04/13 07:57:19;;;;;;;0.53;0.43;;;;;;;10.09;56.01;101339.28;5073719;28;20253;-69
2021/04/13 08:00:04;;;;;;;0.77;0.50;;;;;;;10.21;55.04;101343.16;5086822;28;20219;-73
2021/04/13 08:02:39;;;;;;;1.47;0.50;;;;;;;10.29;54.75;101340.00;5068385;28;20198;-73
2021/04/13 08:05:09;;;;;;;1.27;0.47;;;;;;;10.23;53.71;101350.16;5070059;28;20604;-69
2021/04/13 08:07:41;;;;;;;0.43;0.40;;;;;;;10.07;54.05;101345.69;5087009;28;20197;-70
2021/04/13 08:10:14;;;;;;;0.73;0.40;;;;;;;10.02;54.22;101350.44;5076660;28;20280;-69
2021/04/13 08:12:56;;;;;;;0.70;0.33;;;;;;;10.06;53.94;101352.00;5069253;28;20205;-69
2021/04/13 08:15:49;;;;;;;1.87;0.60;;;;;;;10.00;52.88;101337.13;5082043;28;20810;-69
2021/04/13 08:18:26;;;;;;;0.53;0.53;;;;;;;10.08;54.70;101353.66;5079088;28;20222;-73
2021/04/13 08:20:57;;;;;;;0.43;0.43;;;;;;;9.87;54.83;101355.72;5069619;28;20749;-73
2021/04/13 08:23:37;;;;;;;0.50;0.50;;;;;;;9.47;54.34;101348.09;5080019;28;20205;-69
2021/04/13 08:26:41;;;;;;;0.87;0.50;;;;;;;9.64;55.16;101353.44;5071471;28;20195;-69
2021/04/13 08:29:17;;;;;;;0.90;0.50;;;;;;;9.49;54.55;101357.81;5071395;28;20195;-69
2021/04/13 08:34:56;;;;;;;0.20;0.20;;;;;;;9.42;55.65;101348.34;5074932;28;20561;-69
2021/04/13 08:37:31;;;;;;;0.70;0.40;;;;;;;9.36;55.28;101348.66;5086687;28;20230;-69
2021/04/13 08:40:22;;;;;;;3.63;0.67;;;;;;;9.30;55.37;101359.72;5074250;28;20222;-69
2021/04/13 08:42:58;;;;;;;0.53;0.53;;;;;;;9.20;55.79;101348.63;5072074;28;20198;-69
2021/04/13 08:45:32;;;;;;;0.53;0.40;;;;;;;9.08;55.43;101361.78;5082190;28;20203;-69
2021/04/13 08:48:12;;;;;;;0.37;0.33;;;;;;;9.17;55.43;101358.63;5087401;28;20255;-73
2021/04/13 08:50:41;;;;;;;0.67;0.40;;;;;;;9.19;55.04;101346.91;5086998;28;20597;-73
2021/04/13 08:53:10;;;;;;;0.30;0.30;;;;;;;9.31;56.09;101348.91;5084804;28;20208;-73
2021/04/13 08:55:48;;;;;;;1.97;0.70;;;;;;;9.32;54.26;101349.78;5082541;28;20224;-73
2021/04/13 08:58:34;;;;;;;0.50;0.50;;;;;;;9.06;54.71;101321.66;5087245;28;20947;-70
2021/04/13 09:01:19;;;;;;;0.77;0.40;;;;;;;9.42;55.34;101351.03;5075229;28;20195;-73
2021/04/13 09:03:46;;;;;;;1.20;0.53;;;;;;;9.28;55.01;101350.91;5079575;28;20579;-69
2021/04/13 09:06:17;;;;;;;2.90;0.73;;;;;;;9.45;55.03;101350.84;5084122;28;20197;-72
2021/04/13 09:08:53;;;;;;;0.50;0.50;;;;;;;9.57;54.69;101350.22;5078169;28;20772;-74
2021/04/13 09:11:35;;;;;;;0.40;0.40;;;;;;;9.68;54.44;101355.00;5083006;28;20282;-73
2021/04/13 09:14:17;;;;;;;0.53;0.30;;;;;;;9.61;54.43;101351.78;5080405;28;20216;-73
2021/04/13 09:16:56;;;;;;;0.60;0.60;;;;;;;9.81;53.58;101344.47;5079859;28;20684;-73
2021/04/13 09:19:39;;;;;;;2.43;0.63;;;;;;;9.83;54.85;101353.31;5082036;28;20231;-73
2021/04/13 09:22:20;;;;;;;0.73;0.47;;;;;;;9.99;53.99;101345.25;5082766;28;20200;-73
2021/04/13 09:25:10;;;;;;;0.30;0.30;;;;;;;9.89;53.74;101324.31;5080775;28;20192;-70
2021/04/13 09:27:42;;;;;;;0.40;0.40;;;;;;;10.13;54.31;101345.38;5080448;28;20196;-73
2021/04/13 09:30:26;;;;;;;0.60;0.37;;;;;;;9.99;52.51;101337.22;5082741;28;20548;-73
2021/04/13 09:33:04;;;;;;;0.40;0.40;;;;;;;9.92;53.88;101312.53;5085864;28;20200;-73
2021/04/13 09:35:45;;;;;;;1.47;0.40;;;;;;;9.95;54.25;101331.16;5082667;28;20192;-73
2021/04/13 09:38:28;;;;;;;3.00;0.30;;;;;;;9.94;54.11;101342.84;5073801;28;20316;-73
2021/04/13 09:41:07;;;;;;;0.57;0.57;;;;;;;9.93;54.40;101349.16;5078650;28;20200;-73
2021/04/13 09:43:51;;;;;;;1.33;0.40;;;;;;;9.93;54.47;101343.78;5082735;28;20344;-73
2021/04/13 09:46:34;;;;;;;0.60;0.30;;;;;;;9.93;55.03;101346.47;5085468;28;20203;-73
2021/04/13 09:49:14;;;;;;;0.33;0.33;;;;;;;9.86;54.69;101331.66;5087053;28;20196;-73
2021/04/13 09:52:07;;;;;;;1.43;0.50;;;;;;;9.96;53.35;101343.63;5090125;28;20204;-74
2021/04/13 09:54:37;;;;;;;5.20;0.57;;;;;;;9.90;53.99;101343.97;5089039;28;20288;-73
2021/04/13 09:57:45;;;;;;;2.73;0.73;;;;;;;9.91;53.47;101346.56;5072776;28;20281;-73
2021/04/13 10:00:32;;;;;;;0.40;0.40;;;;;;;9.86;54.49;101332.53;5070130;28;20223;-73
2021/04/13 10:03:38;;;;;;;1.40;0.60;;;;;;;9.84;54.75;101347.84;5070859;28;20234;-73
2021/04/13 10:06:07;;;;;;;2.53;0.40;;;;;;;9.49;54.18;101306.88;5059071;28;20212;-73
2021/04/13 10:08:38;;;;;;;0.40;0.23;;;;;;;9.53;54.81;101329.03;5083527;28;20224;-71
2021/04/13 10:11:40;;;;;;;0.87;0.43;;;;;;;9.55;54.69;101338.72;5083790;28;20198;-73
2021/04/13 10:14:45;;;;;;;3.47;0.60;;;;;;;9.50;55.04;101351.50;5077139;28;20207;-74
2021/04/13 10:17:30;;;;;;;4.13;0.50;;;;;;;9.47;55.57;101350.78;5076762;28;20217;-73
2021/04/13 10:20:11;;;;;;;0.50;0.50;;;;;;;9.42;55.87;101342.13;5090808;28;20221;-73
2021/04/13 10:23:28;;;;;;;1.23;0.80;;;;;;;9.55;55.70;101351.25;5082929;28;20580;-74
2021/04/13 10:26:28;;;;;;;1.17;0.80;;;;;;;9.53;55.28;101350.47;5068053;28;20212;-73
2021/04/13 10:29:28;;;;;;;0.50;0.50;;;;;;;9.56;56.09;101356.53;5079284;28;20227;-73
2021/04/13 10:32:33;;;;;;;0.70;0.40;;;;;;;9.55;54.58;101349.44;5067483;28;20216;-73
2021/04/13 10:35:35;;;;;;;0.73;0.43;;;;;;;9.51;55.73;101357.72;5032039;28;20657;-73
2021/04/13 10:38:26;;;;;;;1.37;0.60;;;;;;;9.42;54.54;101364.41;5081481;28;20219;-71
2021/04/13 10:41:32;;;;;;;0.80;0.60;;;;;;;9.36;55.45;101364.75;5088492;28;20684;-74
2021/04/13 10:44:38;;;;;;;0.40;0.40;;;;;;;9.34;56.07;101361.28;5078539;28;20204;-73
2021/04/13 10:47:34;;;;;;;0.53;0.53;;;;;;;9.34;55.61;101358.59;5072485;28;20238;-73
2021/04/13 10:50:26;;;;;;;2.57;0.40;;;;;;;9.14;56.19;101322.13;5085017;28;20238;-71
2021/04/13 10:53:20;;;;;;;0.40;0.40;;;;;;;9.44;55.84;101362.53;5086214;28;20686;-71
2021/04/13 10:56:05;;;;;;;2.23;0.40;;;;;;;9.60;54.70;101366.13;5075887;28;20200;-69
2021/04/13 10:59:16;;;;;;;0.20;0.20;;;;;;;9.67;55.39;101369.34;5075201;28;20201;-69
2021/04/13 11:01:59;;;;;;;0.83;0.47;;;;;;;9.65;55.71;101371.25;5090609;28;20621;-69
2021/04/13 11:05:06;;;;;;;0.37;0.37;;;;;;;9.60;55.18;101374.19;5078832;28;20200;-68
2021/04/13 11:08:13;;;;;;;0.30;0.30;;;;;;;9.48;55.54;101377.50;5083362;28;20666;-69
2021/04/13 11:11:20;;;;;;;0.30;0.27;;;;;;;9.41;55.71;101367.19;5085774;28;20227;-69
2021/04/13 11:14:21;;;;;;;0.50;0.43;;;;;;;9.27;54.90;101333.09;5087338;28;20531;-69
2021/04/13 11:17:37;;;;;;;0.10;0.10;;;;;;;9.38;55.58;101357.50;5081279;28;20200;-69
2021/04/13 11:20:20;;;;;;;0.13;0.13;;;;;;;9.59;54.94;101372.44;5087176;28;20221;-68
2021/04/13 11:23:22;;;;;;;0.87;0.30;;;;;;;9.60;55.48;101360.78;5068986;28;20561;-70
2021/04/13 11:26:28;;;;;;;0.63;0.20;;;;;;;9.65;55.38;101377.47;5082615;28;20582;-69
2021/04/13 11:29:37;;;;;;;2.30;0.40;;;;;;;9.83;54.94;101375.63;5080698;28;20211;-69
2021/04/13 11:32:48;;;;;;;0.40;0.37;;;;;;;9.79;54.33;101379.41;5050135;28;20731;-69
2021/04/13 11:35:21;;;;;;;0.77;0.50;;;;;;;9.77;55.20;101383.13;5079548;28;20228;-69
2021/04/13 11:38:10;;;;;;;0.30;0.30;;;;;;;9.85;54.72;101378.22;5071784;28;20202;-68
2021/04/13 11:41:08;;;;;;;0.47;0.40;;;;;;;9.90;53.55;101379.69;5067595;28;20640;-69
2021/04/13 11:43:44;;;;;;;991.93;578.13;;;;;;;10.03;55.15;101382.56;5088723;28;20233;-69
2021/04/13 11:46:14;;;;;;;219.13;96.40;;;;;;;9.70;54.49;101337.00;5079964;28;20214;-69
2021/04/13 11:48:47;;;;;;;21.03;10.00;;;;;;;10.00;55.87;101390.78;5087336;28;20223;-69
2021/04/13 11:51:22;;;;;;;8.80;4.23;;;;;;;10.18;55.52;101378.19;5088268;28;20207;-69
2021/04/13 11:53:51;;;;;;;9.57;3.60;;;;;;;10.48;54.77;101384.53;5083433;28;20199;-69
2021/04/13 11:56:35;;;;;;;0.80;0.80;;;;;;;9.99;54.03;101386.38;5072323;28;20212;-70
2021/04/13 11:59:23;;;;;;;0.40;0.40;;;;;;;10.36;55.75;101384.34;5074071;28;20298;-70
2021/04/13 12:01:55;;;;;;;1.20;1.10;;;;;;;10.78;54.55;101376.53;5072474;28;20292;-69
2021/04/13 12:04:26;;;;;;;1.10;1.00;;;;;;;10.95;54.13;101377.34;5069208;28;20481;-71
2021/04/13 12:06:57;;;;;;;0.40;0.40;;;;;;;11.06;54.22;101374.91;5072649;28;20285;-71
2021/04/13 12:09:46;;;;;;;0.87;0.87;;;;;;;11.23;54.28;101380.13;5075513;28;20218;-71
2021/04/13 12:12:46;;;;;;;4.50;3.37;;;;;;;11.04;53.06;101380.38;5071948;28;20286;-71
2021/04/13 12:15:36;;;;;;;1.90;1.53;;;;;;;11.29;51.28;101377.06;5077450;28;20216;-71
2021/04/13 12:18:42;;;;;;;1.80;1.00;;;;;;;11.60;52.72;101381.41;5088593;28;20298;-71
2021/04/13 12:21:44;;;;;;;0.73;0.60;;;;;;;11.76;51.32;101376.84;5074494;28;20287;-71